NCAR-RAP Real-Time Weather Data

Output produced by METARs form (20 January 2018  03:38 UTC)
found at http://weather.rap.ucar.edu/surface/
 
 
KMSO 200253Z 20006KT 10SM BKN050 01/M05 A2990 RMK AO2 SLP150 T00111050 51007
KMSO 200153Z 24003KT 10SM BKN055 BKN080 01/M05 A2989 RMK AO2 SLP148 T00111050
 
KHLN 200253Z VRB06KT 10SM CLR M01/M07 A2983 RMK AO2 SLP144 T10061067 51009
KHLN 200153Z 25008KT 10SM CLR M01/M07 A2983 RMK AO2 SLP144 T10061067
 
KLWT 200254Z AUTO 24009KT 10SM FEW065 M01/M04 A2976 RMK AO2 SLP099 T10111039 53008
KLWT 200154Z AUTO 21008KT 10SM CLR M02/M04 A2973 RMK AO2 SLP092 T10171039
 
KBTM 200253Z AUTO 14003KT 10SM CLR M12/M13 A2984 RMK AO2 SLP159 T11171133 51010
KBTM 200153Z AUTO 30004KT 10SM FEW050 M07/M10 A2983 RMK AO2 SLP144 T10721100
 
 
KBZN 200256Z 11003KT 10SM OVC110 M04/M04 A2985 RMK AO2 SLP143 T10391044 51010
KBZN 200156Z 13005KT 10SM SCT033 OVC110 M03/M04 A2984 RMK AO2 SLP137 T10331044
 
KLVM 200253Z AUTO 26012KT 10SM OVC095 M01/M04 A2982 RMK AO2 SLP119 60000 T10061039 53008
KLVM 200153Z AUTO 26009KT 10SM OVC070 M01/M03 A2980 RMK AO2 SNE01 SLP118 P0000 T10111028
 
KBIL 200253Z 24009KT 10SM SCT075 OVC090 01/M01 A2980 RMK AO2 SLP113 T00111006 51012 $
KBIL 200153Z 23005KT 10SM OVC040 01/00 A2979 RMK AO2 SLP111 T00110000 $
 
 
KDLN 200309Z AUTO 00000KT 9SM BKN002 BKN019 OVC110 M07/ A2983 RMK AO2 T1067 $
KDLN 200253Z AUTO 02005KT 10SM FEW002 SCT049 OVC110 M07/M07 A2983 RMK AO2 SNE38 SLP144 P0000 60002 T10671067 51005 $
KDLN 200153Z AUTO 14005KT 6SM -SN BR FEW016 BKN042 OVC050 M06/M06 A2982 RMK AO2 SNB35 SLP139 P0001 T10561056 $